Time;durP1;ratioP1;P1;durP2;ratioP2;P2;SDS_P1;SDS_P2;PMS_P1;PMS_P2;Temp;Humidity;BMP_temperature;BMP_pressure;BME280_temperature;BME280_humidity;BME280_pressure;Samples;Min_cycle;Max_cycle;Signal;HPM_P1;HPM_P2
2021/04/23 00:01:07;;;;;;;12.13;4.95;;;;;;;3.11;60.94;96991.42;1685632;84;21166;-83
2021/04/23 00:04:00;;;;;;;12.40;5.37;;;;;;;3.10;60.98;96996.38;1701639;84;21143;-83
2021/04/23 00:06:35;;;;;;;12.95;4.97;;;;;;;3.09;60.93;96993.44;1688090;84;21553;-83
2021/04/23 00:09:16;;;;;;;12.53;5.42;;;;;;;3.08;61.12;96986.09;1693443;83;21202;-83
2021/04/23 00:11:54;;;;;;;7.97;4.50;;;;;;;3.09;61.26;96989.00;1694740;84;21164;-83
2021/04/23 00:14:29;;;;;;;16.00;5.75;;;;;;;3.05;61.43;96993.59;1698155;84;21123;-83
2021/04/23 00:16:58;;;;;;;14.13;5.50;;;;;;;3.04;61.51;96992.00;1696402;84;21135;-83
2021/04/23 00:19:26;;;;;;;13.08;5.30;;;;;;;3.09;61.51;96986.89;1694937;84;21133;-83
2021/04/23 00:21:57;;;;;;;15.48;5.97;;;;;;;3.13;61.57;96987.55;1701420;84;21247;-83
2021/04/23 00:24:27;;;;;;;12.95;5.10;;;;;;;3.17;61.58;96987.91;1689187;84;21156;-83
2021/04/23 00:26:55;;;;;;;10.10;4.60;;;;;;;3.23;61.69;96983.08;1692041;84;21105;-83
2021/04/23 00:29:22;;;;;;;12.93;5.33;;;;;;;3.27;61.86;96983.74;1695138;84;21126;-83
2021/04/23 00:34:38;;;;;;;12.03;5.70;;;;;;;3.40;61.72;96988.52;1701583;84;21131;-83
2021/04/23 00:37:06;;;;;;;10.03;5.20;;;;;;;3.42;61.84;96982.02;1701568;84;21180;-83
2021/04/23 00:39:35;;;;;;;13.08;5.62;;;;;;;3.46;61.82;96989.72;1700000;84;21155;-83
2021/04/23 00:42:05;;;;;;;12.78;5.58;;;;;;;3.51;61.73;96985.91;1697456;84;21117;-83
2021/04/23 00:44:33;;;;;;;12.47;4.95;;;;;;;3.57;61.76;96985.03;1701636;84;21155;-83
2021/04/23 00:47:00;;;;;;;12.68;5.58;;;;;;;3.55;61.93;96986.28;1697745;84;21150;-83
2021/04/23 00:49:27;;;;;;;11.15;5.05;;;;;;;3.57;61.86;96981.09;1698641;84;21135;-83
2021/04/23 00:51:59;;;;;;;14.23;5.50;;;;;;;3.63;61.76;96991.70;1694899;83;21499;-83
2021/04/23 00:54:28;;;;;;;9.38;5.15;;;;;;;3.67;61.84;96983.18;1692864;84;21148;-83
2021/04/23 00:56:56;;;;;;;11.65;5.37;;;;;;;3.70;61.84;96984.55;1688434;84;21150;-83
2021/04/23 00:59:23;;;;;;;15.88;5.75;;;;;;;3.76;61.73;96991.50;1694960;84;21169;-83
2021/04/23 01:02:01;;;;;;;14.07;6.25;;;;;;;3.82;61.53;96987.99;1697203;84;21108;-83
2021/04/23 01:04:30;;;;;;;9.98;5.40;;;;;;;3.84;61.50;96984.63;1697199;84;21165;-83
2021/04/23 01:06:58;;;;;;;10.20;5.85;;;;;;;3.88;61.47;96985.77;1685016;84;21175;-83
2021/04/23 01:09:30;;;;;;;17.87;6.95;;;;;;;3.89;61.44;96980.80;1666038;84;21213;-83
2021/04/23 01:12:03;;;;;;;17.77;7.47;;;;;;;3.90;61.31;96982.92;1699328;83;21127;-83
2021/04/23 01:14:31;;;;;;;14.70;7.30;;;;;;;3.85;61.40;96987.54;1691769;85;21143;-83
2021/04/23 01:16:59;;;;;;;18.67;7.72;;;;;;;3.77;61.42;96988.66;1689885;85;21146;-83
2021/04/23 01:19:28;;;;;;;14.33;6.83;;;;;;;3.68;61.49;96987.91;1689915;84;21515;-83
2021/04/23 01:21:56;;;;;;;16.32;7.58;;;;;;;3.61;61.63;96987.20;1672236;85;21132;-83
2021/04/23 01:24:24;;;;;;;16.65;7.08;;;;;;;3.54;61.73;96986.80;1685583;84;21165;-83
2021/04/23 01:26:55;;;;;;;18.30;8.23;;;;;;;3.48;61.89;96994.22;1672512;86;21207;-83
2021/04/23 01:29:24;;;;;;;;;;;;;;;3.43;62.46;96998.55;1675667;86;21171;-83
2021/04/23 01:31:55;;;;;;;19.32;7.17;;;;;;;3.37;62.48;96993.67;1672784;85;20134;-83
2021/04/23 01:34:33;;;;;;;14.43;7.37;;;;;;;3.35;62.57;96991.78;1673627;84;21185;-83
2021/04/23 01:37:03;;;;;;;12.40;7.37;;;;;;;3.32;62.98;97003.23;1670983;85;21297;-83
2021/04/23 01:39:33;;;;;;;15.85;7.80;;;;;;;3.33;63.22;97004.31;1677173;84;21151;-83
2021/04/23 01:42:02;;;;;;;13.47;6.60;;;;;;;3.30;63.03;97004.77;1674231;86;21547;-83
2021/04/23 01:44:31;;;;;;;14.03;7.53;;;;;;;3.28;63.05;97004.19;1677690;84;22118;-83
2021/04/23 01:47:00;;;;;;;14.98;7.20;;;;;;;3.27;63.08;97003.39;1669236;84;21157;-83
2021/04/23 01:49:28;;;;;;;20.43;7.33;;;;;;;3.26;63.05;97002.30;1667460;84;21517;-83
2021/04/23 01:52:06;;;;;;;18.90;7.87;;;;;;;3.27;63.25;97002.59;1674549;85;21262;-83
2021/04/23 01:54:34;;;;;;;16.80;7.75;;;;;;;3.30;63.23;97005.27;1669158;84;21273;-83
2021/04/23 01:57:03;;;;;;;17.45;8.23;;;;;;;3.33;63.26;97004.83;1666517;84;21132;-83
2021/04/23 01:59:32;;;;;;;14.53;8.65;;;;;;;3.34;63.30;97003.80;1665508;84;21633;-83
2021/04/23 02:02:02;;;;;;;17.55;8.00;;;;;;;3.36;63.30;97006.48;1666624;86;21170;-83
2021/04/23 02:04:29;;;;;;;16.87;7.60;;;;;;;3.40;63.31;97006.34;1662069;85;21136;-83
2021/04/23 02:06:58;;;;;;;15.43;8.10;;;;;;;3.45;63.22;97010.91;1668266;85;21295;-83
2021/04/23 02:09:26;;;;;;;20.48;7.80;;;;;;;3.48;63.25;97015.19;1672485;84;21293;-83
2021/04/23 02:11:54;;;;;;;19.77;8.63;;;;;;;3.48;63.31;97017.02;1678245;84;21560;-83
2021/04/23 02:14:24;;;;;;;19.65;7.60;;;;;;;3.47;63.31;97017.53;1672622;86;21141;-83
2021/04/23 02:16:54;;;;;;;16.00;7.80;;;;;;;3.49;63.32;97012.86;1665554;86;21503;-83
2021/04/23 02:19:23;;;;;;;14.90;5.30;;;;;;;3.56;63.35;97012.78;1668291;85;21185;-83
2021/04/23 02:21:52;;;;;;;19.62;8.30;;;;;;;3.62;63.46;97015.01;1674631;86;21628;-83
2021/04/23 02:24:19;;;;;;;16.75;8.05;;;;;;;3.62;63.43;97021.56;1664323;86;21139;-83
2021/04/23 02:26:46;;;;;;;17.60;8.10;;;;;;;3.60;63.58;97021.79;1670797;86;21183;-83
2021/04/23 02:29:17;;;;;;;20.48;8.40;;;;;;;3.56;63.56;97021.44;1674104;84;21313;-83
2021/04/23 02:31:52;;;;;;;15.15;6.53;;;;;;;3.53;63.73;97024.52;1731854;81;21138;-83
2021/04/23 02:34:23;;;;;;;13.58;6.53;;;;;;;3.50;63.89;97026.25;1671838;84;21140;-83
2021/04/23 02:36:53;;;;;;;15.43;6.90;;;;;;;3.50;64.07;97030.69;1665808;86;21486;-83
2021/04/23 02:39:21;;;;;;;14.13;6.05;;;;;;;3.48;64.27;97041.41;1674077;86;21138;-83
2021/04/23 02:41:53;;;;;;;15.70;7.17;;;;;;;3.49;64.25;97036.95;1689786;84;21151;-83
2021/04/23 02:44:20;;;;;;;15.10;6.83;;;;;;;3.52;64.32;97041.27;1726559;81;21153;-83
2021/04/23 02:46:47;;;;;;;16.07;7.40;;;;;;;3.55;64.40;97039.50;1738118;81;21475;-83
2021/04/23 02:49:15;;;;;;;10.65;5.83;;;;;;;3.58;64.36;97036.94;1735972;81;21208;-83
2021/04/23 02:51:46;;;;;;;10.43;4.40;;;;;;;3.58;64.58;97033.81;1669050;86;21166;-83
2021/04/23 02:54:15;;;;;;;11.85;5.10;;;;;;;3.56;65.59;97034.55;1667677;86;21570;-83
2021/04/23 02:56:43;;;;;;;10.23;5.37;;;;;;;3.50;65.84;97032.80;1666777;85;21204;-83
2021/04/23 02:59:11;;;;;;;12.33;4.90;;;;;;;3.45;66.26;97041.85;1681552;84;21156;-83
2021/04/23 03:01:47;;;;;;;15.58;5.60;;;;;;;3.44;66.62;97044.70;1678852;84;21088;-83
2021/04/23 03:04:14;;;;;;;10.38;6.03;;;;;;;3.41;66.71;97045.95;1685661;84;21197;-83
2021/04/23 03:06:42;;;;;;;10.58;5.12;;;;;;;3.41;66.93;97045.15;1746959;81;21122;-83
2021/04/23 03:09:10;;;;;;;10.68;5.28;;;;;;;3.38;67.55;97039.84;1661344;86;21241;-83
2021/04/23 03:11:41;;;;;;;12.73;5.35;;;;;;;3.37;67.51;97041.34;1671207;86;21162;-83
2021/04/23 03:14:09;;;;;;;10.95;5.05;;;;;;;3.34;67.31;97040.48;1689485;84;21146;-83
2021/04/23 03:16:41;;;;;;;10.90;4.70;;;;;;;3.36;67.07;97035.31;1687876;84;21340;-83
2021/04/23 03:19:12;;;;;;;9.68;5.40;;;;;;;3.40;67.08;97031.76;1696102;83;21186;-83
2021/04/23 03:21:39;;;;;;;10.00;5.45;;;;;;;3.43;67.23;97045.20;1699291;84;21106;-83
2021/04/23 03:24:08;;;;;;;14.30;5.20;;;;;;;3.40;67.00;97041.73;1686213;84;21244;-83
2021/04/23 03:26:35;;;;;;;11.57;4.80;;;;;;;3.38;67.21;97043.77;1694884;84;21250;-83
2021/04/23 03:29:05;;;;;;;13.13;4.30;;;;;;;3.37;67.41;97042.15;1692445;84;21199;-83
2021/04/23 03:31:34;;;;;;;9.63;4.75;;;;;;;3.37;67.77;97040.03;1686325;84;21175;-83
2021/04/23 03:34:03;;;;;;;11.60;4.90;;;;;;;3.37;67.94;97042.66;1691871;84;21137;-83
2021/04/23 03:36:31;;;;;;;12.82;4.58;;;;;;;3.36;67.57;97056.27;1701644;84;21211;-83
2021/04/23 03:38:59;;;;;;;11.48;5.58;;;;;;;3.38;67.52;97055.56;1696479;84;21227;-83
2021/04/23 03:41:30;;;;;;;10.03;4.22;;;;;;;3.42;67.38;97054.09;1691984;84;21198;-83
2021/04/23 03:44:00;;;;;;;10.55;4.60;;;;;;;3.44;67.53;97049.94;1697057;84;21171;-83
2021/04/23 03:46:28;;;;;;;12.05;4.78;;;;;;;3.44;67.41;97065.16;1701078;84;21513;-83
2021/04/23 03:48:56;;;;;;;7.62;4.05;;;;;;;3.45;67.43;97054.95;1697476;84;21203;-83
2021/04/23 03:51:24;;;;;;;10.38;5.20;;;;;;;3.47;68.01;97065.22;1695630;84;21147;-83
2021/04/23 03:53:52;;;;;;;11.55;4.75;;;;;;;3.46;67.75;97063.62;1697159;84;21151;-83
2021/04/23 03:56:21;;;;;;;10.13;4.70;;;;;;;3.44;68.05;97057.29;1701038;84;21633;-83
2021/04/23 03:58:50;;;;;;;15.50;5.10;;;;;;;3.43;68.29;97059.63;1686791;84;21110;-83
2021/04/23 04:01:22;;;;;;;14.78;5.20;;;;;;;3.42;68.74;97068.52;1695678;84;21203;-83
2021/04/23 04:03:51;;;;;;;11.20;4.95;;;;;;;3.41;68.27;97068.22;1701472;84;21499;-83
2021/04/23 04:06:18;;;;;;;8.28;4.55;;;;;;;3.45;68.04;97073.30;1701564;84;21122;-82
2021/04/23 04:08:45;;;;;;;11.55;5.03;;;;;;;3.47;68.30;97072.56;1706568;84;21187;-83
2021/04/23 04:11:12;;;;;;;11.90;4.95;;;;;;;3.47;68.38;97073.08;1709597;84;21140;-83
2021/04/23 04:13:39;;;;;;;13.08;5.33;;;;;;;3.46;68.72;97078.03;1709196;84;21161;-82
2021/04/23 04:16:06;;;;;;;10.13;4.15;;;;;;;3.46;68.70;97080.14;1708609;84;21171;-83
2021/04/23 04:18:33;;;;;;;8.08;4.80;;;;;;;3.48;68.43;97082.03;1708505;84;21139;-83
2021/04/23 04:21:00;;;;;;;14.30;5.30;;;;;;;3.49;68.58;97082.31;1699410;84;21166;-82
2021/04/23 04:23:27;;;;;;;9.00;4.28;;;;;;;3.50;68.47;97083.91;1706971;84;21175;-83
2021/04/23 04:26:01;;;;;;;12.45;5.17;;;;;;;3.55;68.76;97091.93;1696455;84;21146;-83
2021/04/23 04:28:31;;;;;;;12.28;5.72;;;;;;;3.57;68.54;97093.02;1709742;84;21168;-82
2021/04/23 04:31:00;;;;;;;11.30;3.92;;;;;;;3.61;68.65;97095.98;1702395;84;21139;-83
2021/04/23 04:33:28;;;;;;;9.58;4.50;;;;;;;3.62;69.15;97098.38;1709724;84;21167;-83
2021/04/23 04:35:55;;;;;;;9.65;4.78;;;;;;;3.61;69.02;97094.68;1708250;84;21189;-82
2021/04/23 04:38:22;;;;;;;8.50;4.30;;;;;;;3.59;68.96;97098.84;1703612;84;21142;-83
2021/04/23 04:40:51;;;;;;;6.45;3.62;;;;;;;3.62;69.01;97104.14;1708029;84;21121;-83
2021/04/23 04:43:20;;;;;;;11.20;4.12;;;;;;;3.63;69.26;97109.16;1709830;84;21194;-83
2021/04/23 04:45:50;;;;;;;9.70;4.97;;;;;;;3.63;69.43;97101.30;1709543;84;21144;-83
2021/04/23 04:48:18;;;;;;;9.93;4.40;;;;;;;3.61;69.59;97103.85;1707467;83;21149;-83
2021/04/23 04:50:53;;;;;;;11.48;6.22;;;;;;;3.64;69.95;97100.78;1673557;85;21159;-83
2021/04/23 04:53:21;;;;;;;12.25;6.12;;;;;;;3.66;69.91;97110.53;1673081;85;21128;-83
2021/04/23 04:55:53;;;;;;;10.78;5.50;;;;;;;3.70;69.71;97106.47;1679667;85;21488;-82
2021/04/23 04:58:25;;;;;;;9.78;5.05;;;;;;;3.81;69.63;97108.34;1679724;85;21281;-83
2021/04/23 05:00:53;;;;;;;11.93;5.60;;;;;;;3.90;69.48;97117.48;1676354;85;21127;-83
2021/04/23 05:03:20;;;;;;;9.73;4.62;;;;;;;3.89;69.22;97115.88;1679758;85;21128;-83
2021/04/23 05:05:48;;;;;;;11.93;5.37;;;;;;;3.96;69.19;97121.84;1679629;85;21116;-83
2021/04/23 05:08:16;;;;;;;10.32;5.47;;;;;;;4.00;69.19;97110.39;1674983;85;21540;-83
2021/04/23 05:10:44;;;;;;;10.38;6.03;;;;;;;4.12;69.19;97118.59;1683260;84;21531;-83
2021/04/23 05:13:12;;;;;;;17.40;6.33;;;;;;;5.21;69.53;97117.68;1672488;85;21562;-83
2021/04/23 05:15:41;;;;;;;12.13;5.87;;;;;;;7.32;67.29;97111.21;1679007;84;21150;-82
2021/04/23 05:18:08;;;;;;;9.58;4.97;;;;;;;7.76;64.49;97112.55;1681061;84;21155;-83
2021/04/23 05:20:37;;;;;;;8.68;4.87;;;;;;;8.77;64.56;97114.80;1665138;84;21496;-83
2021/04/23 05:23:05;;;;;;;10.35;5.40;;;;;;;9.67;62.67;97109.44;1684331;84;21137;-83
2021/04/23 05:25:33;;;;;;;11.83;5.30;;;;;;;11.84;62.48;97102.98;1683102;84;21204;-83
2021/04/23 05:28:01;;;;;;;10.30;5.70;;;;;;;13.32;56.96;97103.93;1672726;84;21136;-83
2021/04/23 05:30:32;;;;;;;11.28;4.97;;;;;;;13.24;55.12;97111.23;1662724;84;21546;-83
2021/04/23 05:33:01;;;;;;;;;;;;;;;14.03;55.97;97106.25;1675884;84;21151;-83
2021/04/23 05:35:30;;;;;;;10.08;4.45;;;;;;;15.32;54.23;97106.84;1734928;81;20134;-83
2021/04/23 05:37:59;;;;;;;11.20;4.35;;;;;;;14.72;50.60;97110.84;1739236;81;21475;-83
2021/04/23 05:40:34;;;;;;;8.90;4.20;;;;;;;13.71;51.87;97111.73;1667562;86;21183;-83
2021/04/23 05:43:03;;;;;;;9.48;4.72;;;;;;;12.90;48.46;97116.56;1666127;86;21155;-83
2021/04/23 05:45:30;;;;;;;10.88;4.85;;;;;;;11.62;48.72;97119.23;1675961;86;21189;-83
2021/04/23 05:47:57;;;;;;;10.05;5.15;;;;;;;12.07;47.61;97117.45;1683532;84;21170;-83
2021/04/23 05:50:26;;;;;;;10.10;5.08;;;;;;;10.73;48.40;97119.45;1671849;84;21487;-83
2021/04/23 05:52:55;;;;;;;10.23;4.80;;;;;;;9.42;50.40;97121.52;1739474;81;21176;-83
2021/04/23 05:55:25;;;;;;;9.78;4.35;;;;;;;8.63;52.73;97118.93;1677402;84;21192;-83
2021/04/23 06:00:42;;;;;;;9.93;5.12;;;;;;;6.51;57.32;97126.67;1748767;79;22739;-82
2021/04/23 06:03:11;;;;;;;11.20;5.20;;;;;;;5.85;59.38;97133.39;1719651;82;21653;-82
2021/04/23 06:05:38;;;;;;;13.38;6.35;;;;;;;5.56;60.70;97137.31;1728968;83;21110;-83
2021/04/23 06:08:10;;;;;;;8.93;4.40;;;;;;;5.32;60.95;97140.50;1736933;82;21104;-83
2021/04/23 06:10:42;;;;;;;12.13;5.08;;;;;;;5.27;62.20;97135.14;1723454;81;21190;-82
2021/04/23 06:13:11;;;;;;;9.45;4.08;;;;;;;5.12;62.81;97147.96;1739781;81;21146;-83
2021/04/23 06:15:39;;;;;;;10.20;4.90;;;;;;;4.91;64.13;97144.59;1722860;83;21451;-83
2021/04/23 06:18:07;;;;;;;14.38;4.72;;;;;;;4.69;64.94;97146.98;1716359;83;21187;-83
2021/04/23 06:20:35;;;;;;;10.35;6.12;;;;;;;4.58;65.83;97142.00;1731355;81;21173;-83
2021/04/23 06:23:04;;;;;;;7.87;5.12;;;;;;;4.61;66.06;97142.86;1745420;81;21107;-83
2021/04/23 06:25:32;;;;;;;7.92;5.60;;;;;;;5.01;65.84;97138.25;1721142;81;21131;-83
2021/04/23 06:28:01;;;;;;;8.45;4.92;;;;;;;5.61;64.00;97145.29;1727153;81;21137;-83
2021/04/23 06:30:33;;;;;;;8.88;5.28;;;;;;;5.47;63.96;97138.69;1733299;81;21129;-83
2021/04/23 06:33:13;;;;;;;11.15;5.80;;;;;;;5.44;64.22;97148.89;1727322;81;21161;-83
2021/04/23 06:35:35;;;;;;;11.15;5.87;;;;;;;5.66;64.29;97136.72;1717518;81;21170;-83
2021/04/23 06:38:02;;;;;;;10.55;5.58;;;;;;;5.75;63.72;97143.19;1708126;83;21510;-83
2021/04/23 06:40:31;;;;;;;9.55;5.85;;;;;;;5.84;63.50;97148.89;1731841;81;21194;-83
2021/04/23 06:42:59;;;;;;;8.85;5.25;;;;;;;5.98;63.07;97154.70;1733623;81;21109;-83
2021/04/23 06:45:26;;;;;;;10.60;5.12;;;;;;;5.93;63.12;97153.59;1738861;81;21091;-83
2021/04/23 06:47:53;;;;;;;10.85;6.15;;;;;;;5.85;63.04;97158.38;1734457;81;21129;-83
2021/04/23 06:50:24;;;;;;;8.00;5.00;;;;;;;5.57;62.79;97157.31;1723588;81;21455;-83
2021/04/23 06:52:54;;;;;;;13.70;4.75;;;;;;;5.43;63.19;97155.97;1728969;83;21083;-83
2021/04/23 06:55:24;;;;;;;10.90;5.78;;;;;;;5.17;63.56;97162.52;1734459;81;21144;-83
2021/04/23 06:57:52;;;;;;;10.65;5.25;;;;;;;4.97;64.56;97160.25;1718465;81;21131;-83
2021/04/23 07:00:30;;;;;;;7.55;4.50;;;;;;;4.90;64.47;97160.06;1726705;81;21158;-83
2021/04/23 07:02:58;;;;;;;8.18;4.97;;;;;;;4.76;64.92;97156.34;1729348;83;21142;-83
2021/04/23 07:05:27;;;;;;;10.38;6.37;;;;;;;4.64;65.40;97169.97;1722171;83;21107;-83
2021/04/23 07:07:55;;;;;;;10.60;6.37;;;;;;;4.65;65.90;97163.72;1725865;81;21123;-83
2021/04/23 07:10:29;;;;;;;12.98;6.83;;;;;;;4.75;65.93;97162.62;1724341;81;21511;-83
2021/04/23 07:12:58;;;;;;;10.08;4.97;;;;;;;4.98;66.25;97163.67;1693381;83;21213;-83
2021/04/23 07:15:29;;;;;;;12.07;4.47;;;;;;;5.18;65.89;97161.48;1681362;84;21155;-83
2021/04/23 07:17:58;;;;;;;9.13;4.97;;;;;;;5.15;65.26;97163.27;1661233;86;21164;-83
2021/04/23 07:20:26;;;;;;;8.28;5.12;;;;;;;5.02;65.84;97155.09;1697156;83;21145;-83
2021/04/23 07:22:57;;;;;;;16.87;6.55;;;;;;;5.06;67.13;97156.23;1691475;83;21148;-83
2021/04/23 07:25:24;;;;;;;13.83;6.65;;;;;;;5.16;66.81;97163.55;1700083;83;21120;-83
2021/04/23 07:27:52;;;;;;;5.92;4.47;;;;;;;5.53;66.54;97171.17;1670233;86;21147;-83
2021/04/23 07:30:25;;;;;;;9.45;5.22;;;;;;;5.58;65.37;97162.86;1676107;84;21497;-83
2021/04/23 07:32:52;;;;;;;7.22;5.58;;;;;;;5.36;65.62;97171.89;1710276;83;21492;-83
2021/04/23 07:35:21;;;;;;;12.47;6.67;;;;;;;5.18;66.04;97169.89;1693263;83;21123;-83
2021/04/23 07:37:48;;;;;;;10.68;4.80;;;;;;;5.15;66.42;97169.84;1684928;83;21135;-83
2021/04/23 07:40:18;;;;;;;13.30;6.90;;;;;;;5.20;66.43;97165.99;1694073;83;21539;-83
2021/04/23 07:42:47;;;;;;;10.10;5.33;;;;;;;5.04;66.67;97163.55;1696305;83;21172;-83
2021/04/23 07:45:17;;;;;;;8.75;5.53;;;;;;;4.95;68.17;97178.08;1704444;83;21769;-83
2021/04/23 07:47:46;;;;;;;10.98;5.55;;;;;;;4.87;68.80;97176.29;1685481;85;21147;-83
2021/04/23 07:50:18;;;;;;;6.05;4.20;;;;;;;4.73;68.98;97179.13;1691109;83;21148;-83
2021/04/23 07:52:46;;;;;;;9.90;5.90;;;;;;;4.54;69.77;97183.39;1690578;85;21164;-84
2021/04/23 07:55:16;;;;;;;10.78;7.20;;;;;;;4.42;70.43;97189.92;1727004;83;21647;-84
2021/04/23 07:57:43;;;;;;;12.17;8.03;;;;;;;4.37;71.42;97193.23;1727333;82;21529;-83
2021/04/23 08:00:12;;;;;;;13.30;9.23;;;;;;;4.41;71.70;97194.88;1740779;81;21536;-84
2021/04/23 08:02:41;;;;;;;16.55;8.30;;;;;;;4.62;71.36;97191.72;1733814;82;21633;-84
2021/04/23 08:05:17;;;;;;;12.73;8.45;;;;;;;5.09;71.52;97197.05;1736599;82;21125;-83
2021/04/23 08:07:45;;;;;;;18.73;10.35;;;;;;;5.13;70.53;97197.38;1731203;81;21166;-84
2021/04/23 08:10:16;;;;;;;13.43;8.08;;;;;;;4.99;70.31;97199.43;1725161;81;21131;-84
2021/04/23 08:12:45;;;;;;;15.90;9.25;;;;;;;4.96;70.50;97206.46;1719196;83;21114;-83
2021/04/23 08:15:16;;;;;;;11.40;7.42;;;;;;;4.82;70.36;97199.31;1710126;83;21164;-84
2021/04/23 08:17:44;;;;;;;17.82;10.28;;;;;;;4.88;70.71;97190.51;1723634;83;21176;-84
2021/04/23 08:20:13;;;;;;;12.60;7.90;;;;;;;5.00;70.33;97202.34;1729493;81;21174;-84
2021/04/23 08:22:40;;;;;;;16.57;9.48;;;;;;;5.71;69.56;97186.79;1736559;81;21185;-84
2021/04/23 08:25:10;;;;;;;13.03;8.58;;;;;;;6.14;67.96;97184.22;1731019;81;21149;-84
2021/04/23 08:27:39;;;;;;;13.05;9.08;;;;;;;6.77;65.86;97191.91;1737620;81;21146;-84
2021/04/23 08:30:10;;;;;;;13.78;8.60;;;;;;;7.61;65.67;97189.17;1725066;83;21188;-84
2021/04/23 08:32:38;;;;;;;12.95;8.63;;;;;;;8.28;65.05;97180.94;1729618;83;21107;-84
2021/04/23 08:35:08;;;;;;;8.80;5.78;;;;;;;9.27;63.28;97190.23;1714718;83;21110;-84
2021/04/23 08:37:37;;;;;;;9.38;5.67;;;;;;;8.79;59.11;97181.44;1735811;81;21142;-84
2021/04/23 08:40:07;;;;;;;9.18;5.55;;;;;;;8.01;58.03;97183.55;1733044;81;21167;-83
2021/04/23 08:42:34;;;;;;;;;;;;;;;7.74;58.54;97165.05;1729390;83;21115;-83
2021/04/23 08:45:07;;;;;;;8.93;6.10;;;;;;;7.68;59.75;97175.25;1734739;81;20152;-84
2021/04/23 08:47:38;;;;;;;10.53;5.67;;;;;;;7.50;59.89;97184.80;1729050;81;21137;-84
2021/04/23 08:50:09;;;;;;;7.78;5.35;;;;;;;7.15;60.16;97186.41;1733281;81;21114;-83
2021/04/23 08:52:41;;;;;;;8.45;5.12;;;;;;;6.88;60.22;97186.27;1734740;83;21153;-83
2021/04/23 08:55:12;;;;;;;10.38;5.97;;;;;;;6.82;60.01;97185.39;1733657;83;21151;-83
2021/04/23 08:57:39;;;;;;;11.08;7.53;;;;;;;6.91;60.29;97186.33;1736537;81;21077;-84
2021/04/23 09:00:11;;;;;;;9.85;5.90;;;;;;;6.77;61.24;97180.05;1736462;81;21498;-83
2021/04/23 09:02:39;;;;;;;11.00;7.03;;;;;;;6.63;60.96;97174.02;1719913;83;21546;-83
2021/04/23 09:05:08;;;;;;;12.00;6.97;;;;;;;7.09;62.43;97177.63;1661391;86;21161;-84
2021/04/23 09:07:35;;;;;;;8.60;5.95;;;;;;;8.02;61.25;97175.11;1674677;84;21597;-83
2021/04/23 09:10:13;;;;;;;11.73;7.25;;;;;;;9.32;58.55;97170.44;1722156;81;21161;-83
2021/04/23 09:12:42;;;;;;;8.60;6.78;;;;;;;9.50;57.41;97164.70;1658594;86;21162;-83
2021/04/23 09:15:26;;;;;;;11.85;5.67;;;;;;;9.18;57.58;97161.36;1669842;84;21203;-83
2021/04/23 09:18:15;;;;;;;9.78;5.67;;;;;;;8.53;57.04;97160.59;1659719;86;21148;-83
2021/04/23 09:20:46;;;;;;;9.45;4.90;;;;;;;7.28;57.29;97170.25;1675604;84;21153;-84
2021/04/23 09:23:22;;;;;;;7.28;4.03;;;;;;;6.36;60.10;97182.52;1743969;81;21173;-84
2021/04/23 09:25:53;;;;;;;5.85;4.78;;;;;;;5.77;62.54;97191.14;1656567;86;21488;-85
2021/04/23 09:28:39;;;;;;;7.40;4.80;;;;;;;5.48;65.17;97206.03;1678755;84;21279;-85
2021/04/23 09:31:29;;;;;;;10.63;6.95;;;;;;;5.74;65.69;97206.05;1670828;86;21271;-84
2021/04/23 09:34:04;;;;;;;10.08;6.78;;;;;;;6.23;65.88;97215.73;1663234;86;21249;-84
2021/04/23 09:36:40;;;;;;;8.68;6.12;;;;;;;6.97;66.05;97216.46;1664732;84;21102;-83
2021/04/23 09:39:22;;;;;;;7.47;4.55;;;;;;;7.06;64.45;97214.23;1674418;84;21181;-84
2021/04/23 09:42:03;;;;;;;6.97;4.12;;;;;;;6.93;64.48;97209.28;1673642;84;21473;-84
2021/04/23 09:44:50;;;;;;;6.50;4.25;;;;;;;6.85;64.67;97219.17;1733164;81;21121;-84
2021/04/23 09:47:23;;;;;;;6.05;4.05;;;;;;;6.83;64.90;97226.52;1726271;81;21143;-84
2021/04/23 09:50:00;;;;;;;9.03;5.15;;;;;;;6.84;64.55;97229.95;1735743;81;21110;-84
2021/04/23 09:52:30;;;;;;;8.38;4.78;;;;;;;6.74;64.47;97237.69;1737413;81;21284;-84
2021/04/23 09:55:03;;;;;;;6.87;4.60;;;;;;;6.38;65.28;97231.00;1665530;86;21523;-84
2021/04/23 09:57:34;;;;;;;8.68;5.12;;;;;;;6.15;67.15;97229.25;1651519;85;21106;-84
2021/04/23 10:00:05;;;;;;;8.83;5.33;;;;;;;6.55;68.44;97226.56;1688691;83;21468;-84
2021/04/23 10:02:33;;;;;;;9.78;5.67;;;;;;;6.95;67.20;97210.63;1680157;84;21099;-84
2021/04/23 10:05:01;;;;;;;8.33;5.08;;;;;;;7.36;66.82;97214.67;1692806;84;21158;-84
2021/04/23 10:07:34;;;;;;;5.62;4.42;;;;;;;7.92;66.64;97208.02;1689790;84;21508;-84
2021/04/23 10:10:12;;;;;;;10.00;6.03;;;;;;;8.15;65.53;97202.45;1676257;84;21160;-84
2021/04/23 10:12:52;;;;;;;11.65;5.95;;;;;;;8.02;63.26;97198.88;1670604;84;21107;-83
2021/04/23 10:15:27;;;;;;;10.55;6.25;;;;;;;7.90;63.48;97195.59;1672075;84;21134;-83
2021/04/23 10:17:58;;;;;;;11.50;7.15;;;;;;;7.83;63.07;97180.44;1692763;84;21139;-83
2021/04/23 10:20:33;;;;;;;10.70;6.72;;;;;;;7.87;64.79;97178.38;1688309;84;21136;-83
2021/04/23 10:23:03;;;;;;;9.75;6.33;;;;;;;7.89;62.30;97170.23;1695534;84;21493;-83
2021/04/23 10:25:30;;;;;;;10.13;7.12;;;;;;;7.68;62.66;97173.94;1692237;84;21263;-83
2021/04/23 10:28:00;;;;;;;12.47;6.60;;;;;;;7.70;62.63;97173.16;1691148;84;21136;-83
2021/04/23 10:30:30;;;;;;;9.20;6.22;;;;;;;7.44;61.84;97165.97;1692874;83;21212;-83
2021/04/23 10:33:05;;;;;;;9.65;6.10;;;;;;;7.57;62.49;97159.02;1692287;83;21156;-83
2021/04/23 10:35:36;;;;;;;9.88;6.40;;;;;;;7.58;61.03;97151.37;1673165;86;21128;-83
2021/04/23 10:38:10;;;;;;;11.38;7.62;;;;;;;7.54;61.79;97155.55;1678623;84;21154;-83
2021/04/23 10:40:40;;;;;;;9.15;6.12;;;;;;;7.42;61.13;97149.07;1659429;85;21642;-83
2021/04/23 10:43:18;;;;;;;10.13;6.47;;;;;;;7.78;62.07;97148.20;1681689;84;21510;-83
2021/04/23 10:45:51;;;;;;;10.32;6.97;;;;;;;8.04;61.37;97146.11;1671398;84;21147;-83
2021/04/23 10:48:25;;;;;;;8.45;6.33;;;;;;;8.54;62.05;97137.61;1675375;84;21167;-83
2021/04/23 10:50:56;;;;;;;8.68;5.87;;;;;;;8.81;60.01;97129.09;1665461;84;21537;-83
2021/04/23 10:53:41;;;;;;;10.03;5.28;;;;;;;8.81;58.65;97136.23;1672317;84;21145;-83
2021/04/23 10:56:06;;;;;;;9.88;5.53;;;;;;;8.83;58.70;97126.20;1676485;84;21708;-83
2021/04/23 10:58:38;;;;;;;6.75;4.80;;;;;;;8.86;57.95;97118.55;1663046;85;21155;-83
2021/04/23 11:01:21;;;;;;;8.98;5.53;;;;;;;9.08;57.50;97124.25;1663371;84;21476;-83
2021/04/23 11:04:00;;;;;;;8.15;4.70;;;;;;;9.05;57.37;97119.48;1672027;84;21270;-83
2021/04/23 11:06:39;;;;;;;6.70;3.45;;;;;;;8.97;55.88;97129.20;1664751;85;21205;-83
2021/04/23 11:09:18;;;;;;;7.42;5.45;;;;;;;8.19;52.71;97130.94;1673825;85;21215;-83
2021/04/23 11:12:11;;;;;;;7.50;5.60;;;;;;;7.51;54.76;97182.44;1683720;84;21129;-83
2021/04/23 11:14:41;;;;;;;8.75;6.37;;;;;;;7.06;57.34;97176.01;1664454;85;21291;-83
2021/04/23 11:17:25;;;;;;;9.85;6.25;;;;;;;6.73;58.72;97176.80;1679207;85;21140;-83
2021/04/23 11:19:54;;;;;;;8.95;5.37;;;;;;;6.52;60.39;97188.33;1683444;84;21305;-84
2021/04/23 11:22:26;;;;;;;9.60;6.12;;;;;;;6.47;61.40;97179.53;1672889;85;21155;-84
2021/04/23 11:25:15;;;;;;;12.03;5.90;;;;;;;6.45;61.79;97177.66;1681705;84;21500;-83
2021/04/23 11:28:05;;;;;;;12.05;6.10;;;;;;;6.55;63.08;97182.58;1680046;84;21125;-83
2021/04/23 11:31:09;;;;;;;7.40;5.15;;;;;;;6.81;62.59;97181.16;1677536;84;21148;-83
2021/04/23 11:33:55;;;;;;;7.92;4.47;;;;;;;6.83;60.66;97186.19;1678574;84;21144;-83
2021/04/23 11:36:38;;;;;;;6.35;4.15;;;;;;;6.88;60.82;97178.35;1660520;84;21621;-84
2021/04/23 11:39:13;;;;;;;7.53;4.58;;;;;;;7.47;59.08;97183.97;1656964;85;21184;-83
2021/04/23 11:42:07;;;;;;;8.05;4.12;;;;;;;7.76;57.37;97162.69;1679113;84;21279;-84
2021/04/23 11:44:54;;;;;;;10.38;4.70;;;;;;;7.96;57.44;97162.91;1676125;85;21145;-84
2021/04/23 11:47:35;;;;;;;8.58;4.30;;;;;;;8.17;55.29;97159.45;1661019;84;21164;-83
2021/04/23 11:50:14;;;;;;;8.45;5.33;;;;;;;8.03;53.69;97155.61;1667462;85;21539;-84
2021/04/23 11:52:45;;;;;;;7.22;3.87;;;;;;;8.00;55.24;97162.16;1678987;85;21142;-83
2021/04/23 11:55:32;;;;;;;6.53;3.55;;;;;;;8.01;53.15;97158.98;1679292;84;21167;-83
2021/04/23 11:58:07;;;;;;;6.20;3.40;;;;;;;8.02;52.88;97145.56;1679136;85;21108;-83
2021/04/23 12:00:37;;;;;;;6.40;4.35;;;;;;;7.74;52.73;97146.58;1678769;85;21173;-83